sensor_id;sensor_type;location;lat;lon;timestamp;temperature;humidity
26745;DHT22;14342;50.960;13.880;2022-07-19T00:00:07;21.30;58.60
26745;DHT22;14342;50.960;13.880;2022-07-19T00:01:10;21.30;58.50
26745;DHT22;14342;50.960;13.880;2022-07-19T00:02:11;21.40;58.40
26745;DHT22;14342;50.960;13.880;2022-07-19T00:03:12;21.40;58.50
26745;DHT22;14342;50.960;13.880;2022-07-19T00:04:13;21.40;58.30
26745;DHT22;14342;50.960;13.880;2022-07-19T00:05:14;21.50;58.30
26745;DHT22;14342;50.960;13.880;2022-07-19T00:06:15;21.50;58.30
26745;DHT22;14342;50.960;13.880;2022-07-19T00:07:16;21.50;58.30
26745;DHT22;14342;50.960;13.880;2022-07-19T00:08:17;21.50;58.30
26745;DHT22;14342;50.960;13.880;2022-07-19T00:09:18;21.50;58.20
26745;DHT22;14342;50.960;13.880;2022-07-19T00:10:19;21.60;58.50
26745;DHT22;14342;50.960;13.880;2022-07-19T00:11:22;21.50;58.90
26745;DHT22;14342;50.960;13.880;2022-07-19T00:12:23;21.50;58.70
26745;DHT22;14342;50.960;13.880;2022-07-19T00:13:24;21.50;58.60
26745;DHT22;14342;50.960;13.880;2022-07-19T00:14:25;21.50;58.60
26745;DHT22;14342;50.960;13.880;2022-07-19T00:15:26;21.50;59.20
26745;DHT22;14342;50.960;13.880;2022-07-19T00:16:27;21.50;58.80
26745;DHT22;14342;50.960;13.880;2022-07-19T00:17:28;21.40;59.70
26745;DHT22;14342;50.960;13.880;2022-07-19T00:18:29;21.40;59.40
26745;DHT22;14342;50.960;13.880;2022-07-19T00:19:30;21.40;59.30
26745;DHT22;14342;50.960;13.880;2022-07-19T00:20:31;21.40;59.50
26745;DHT22;14342;50.960;13.880;2022-07-19T00:21:32;21.30;59.40
26745;DHT22;14342;50.960;13.880;2022-07-19T00:22:33;21.40;59.50
26745;DHT22;14342;50.960;13.880;2022-07-19T00:23:34;21.30;59.70
26745;DHT22;14342;50.960;13.880;2022-07-19T00:24:35;21.30;60.10
26745;DHT22;14342;50.960;13.880;2022-07-19T00:25:36;21.20;60.20
26745;DHT22;14342;50.960;13.880;2022-07-19T00:26:38;21.20;60.50
26745;DHT22;14342;50.960;13.880;2022-07-19T00:27:40;21.10;60.30
26745;DHT22;14342;50.960;13.880;2022-07-19T00:28:40;21.10;60.60
26745;DHT22;14342;50.960;13.880;2022-07-19T00:29:42;21.10;60.50
26745;DHT22;14342;50.960;13.880;2022-07-19T00:30:42;21.10;60.70
26745;DHT22;14342;50.960;13.880;2022-07-19T00:31:44;21.20;60.90
26745;DHT22;14342;50.960;13.880;2022-07-19T00:32:44;21.30;60.90
26745;DHT22;14342;50.960;13.880;2022-07-19T00:33:46;21.20;61.00
26745;DHT22;14342;50.960;13.880;2022-07-19T00:34:46;21.20;60.60
26745;DHT22;14342;50.960;13.880;2022-07-19T00:35:48;21.20;60.90
26745;DHT22;14342;50.960;13.880;2022-07-19T00:36:48;21.10;61.80
26745;DHT22;14342;50.960;13.880;2022-07-19T00:37:50;21.10;61.80
26745;DHT22;14342;50.960;13.880;2022-07-19T00:38:50;21.10;61.30
26745;DHT22;14342;50.960;13.880;2022-07-19T00:39:52;21.10;61.10
26745;DHT22;14342;50.960;13.880;2022-07-19T00:40:52;21.10;61.10
26745;DHT22;14342;50.960;13.880;2022-07-19T00:41:55;21.10;61.30
26745;DHT22;14342;50.960;13.880;2022-07-19T00:42:56;21.10;61.30
26745;DHT22;14342;50.960;13.880;2022-07-19T00:43:57;21.10;61.20
26745;DHT22;14342;50.960;13.880;2022-07-19T00:44:58;21.10;61.60
26745;DHT22;14342;50.960;13.880;2022-07-19T00:45:59;21.10;61.80
26745;DHT22;14342;50.960;13.880;2022-07-19T00:47:00;21.10;61.80
26745;DHT22;14342;50.960;13.880;2022-07-19T00:48:02;21.00;61.70
26745;DHT22;14342;50.960;13.880;2022-07-19T00:49:03;21.00;61.60
26745;DHT22;14342;50.960;13.880;2022-07-19T00:50:05;21.00;61.40
26745;DHT22;14342;50.960;13.880;2022-07-19T00:51:05;21.00;62.00
26745;DHT22;14342;50.960;13.880;2022-07-19T00:52:07;21.00;62.00
26745;DHT22;14342;50.960;13.880;2022-07-19T00:53:07;21.00;61.90
26745;DHT22;14342;50.960;13.880;2022-07-19T00:54:11;21.00;62.20
26745;DHT22;14342;50.960;13.880;2022-07-19T00:55:11;21.00;62.40
26745;DHT22;14342;50.960;13.880;2022-07-19T00:56:13;21.00;62.50
26745;DHT22;14342;50.960;13.880;2022-07-19T00:57:15;21.00;62.60
26745;DHT22;14342;50.960;13.880;2022-07-19T00:58:17;20.70;62.20
26745;DHT22;14342;50.960;13.880;2022-07-19T00:59:18;21.10;62.70
26745;DHT22;14342;50.960;13.880;2022-07-19T01:00:19;20.90;63.00
26745;DHT22;14342;50.960;13.880;2022-07-19T01:01:20;20.50;63.00
26745;DHT22;14342;50.960;13.880;2022-07-19T01:02:21;20.60;63.70
26745;DHT22;14342;50.960;13.880;2022-07-19T01:03:22;20.50;64.30
26745;DHT22;14342;50.960;13.880;2022-07-19T01:04:25;20.40;64.80
26745;DHT22;14342;50.960;13.880;2022-07-19T01:05:26;20.20;65.90
26745;DHT22;14342;50.960;13.880;2022-07-19T01:06:27;20.10;65.80
26745;DHT22;14342;50.960;13.880;2022-07-19T01:07:28;20.00;66.40
26745;DHT22;14342;50.960;13.880;2022-07-19T01:08:29;20.00;66.60
26745;DHT22;14342;50.960;13.880;2022-07-19T01:09:30;19.90;66.80
26745;DHT22;14342;50.960;13.880;2022-07-19T01:10:31;19.90;67.50
26745;DHT22;14342;50.960;13.880;2022-07-19T01:11:32;19.90;67.30
26745;DHT22;14342;50.960;13.880;2022-07-19T01:12:35;19.90;67.20
26745;DHT22;14342;50.960;13.880;2022-07-19T01:13:35;20.00;67.40
26745;DHT22;14342;50.960;13.880;2022-07-19T01:14:37;19.90;67.10
26745;DHT22;14342;50.960;13.880;2022-07-19T01:15:37;20.00;66.80
26745;DHT22;14342;50.960;13.880;2022-07-19T01:16:42;20.10;66.90
26745;DHT22;14342;50.960;13.880;2022-07-19T01:17:43;20.10;66.70
26745;DHT22;14342;50.960;13.880;2022-07-19T01:18:45;20.10;66.60
26745;DHT22;14342;50.960;13.880;2022-07-19T01:19:45;20.10;66.80
26745;DHT22;14342;50.960;13.880;2022-07-19T01:20:47;20.00;66.60
26745;DHT22;14342;50.960;13.880;2022-07-19T01:21:49;20.00;66.60
26745;DHT22;14342;50.960;13.880;2022-07-19T01:22:50;20.00;66.60
26745;DHT22;14342;50.960;13.880;2022-07-19T01:23:51;19.90;66.80
26745;DHT22;14342;50.960;13.880;2022-07-19T01:24:53;19.90;67.20
26745;DHT22;14342;50.960;13.880;2022-07-19T01:25:53;19.80;67.10
26745;DHT22;14342;50.960;13.880;2022-07-19T01:26:55;19.90;67.10
26745;DHT22;14342;50.960;13.880;2022-07-19T01:27:55;19.90;66.80
26745;DHT22;14342;50.960;13.880;2022-07-19T01:28:58;20.00;66.90
26745;DHT22;14342;50.960;13.880;2022-07-19T01:29:58;20.00;66.80
26745;DHT22;14342;50.960;13.880;2022-07-19T01:31:00;20.10;66.40
26745;DHT22;14342;50.960;13.880;2022-07-19T01:32:00;20.10;66.30
26745;DHT22;14342;50.960;13.880;2022-07-19T01:33:02;20.20;66.40
26745;DHT22;14342;50.960;13.880;2022-07-19T01:34:03;20.20;66.50
26745;DHT22;14342;50.960;13.880;2022-07-19T01:35:05;20.20;66.50
26745;DHT22;14342;50.960;13.880;2022-07-19T01:36:06;20.30;66.40
26745;DHT22;14342;50.960;13.880;2022-07-19T01:37:09;20.30;66.00
26745;DHT22;14342;50.960;13.880;2022-07-19T01:38:10;20.30;65.80
26745;DHT22;14342;50.960;13.880;2022-07-19T01:39:11;20.40;66.00
26745;DHT22;14342;50.960;13.880;2022-07-19T01:40:12;20.40;65.80
26745;DHT22;14342;50.960;13.880;2022-07-19T01:41:14;20.40;65.80
26745;DHT22;14342;50.960;13.880;2022-07-19T01:42:15;20.30;66.30
26745;DHT22;14342;50.960;13.880;2022-07-19T01:43:16;20.30;67.00
26745;DHT22;14342;50.960;13.880;2022-07-19T01:44:18;20.20;67.30
26745;DHT22;14342;50.960;13.880;2022-07-19T01:45:19;20.10;67.60
26745;DHT22;14342;50.960;13.880;2022-07-19T01:46:20;20.00;68.00
26745;DHT22;14342;50.960;13.880;2022-07-19T01:47:21;19.90;68.20
26745;DHT22;14342;50.960;13.880;2022-07-19T01:48:23;19.80;68.90
26745;DHT22;14342;50.960;13.880;2022-07-19T01:49:24;19.80;69.10
26745;DHT22;14342;50.960;13.880;2022-07-19T01:50:25;19.70;69.20
26745;DHT22;14342;50.960;13.880;2022-07-19T01:51:26;19.70;69.70
26745;DHT22;14342;50.960;13.880;2022-07-19T01:52:29;19.70;70.00
26745;DHT22;14342;50.960;13.880;2022-07-19T01:53:29;19.60;70.70
26745;DHT22;14342;50.960;13.880;2022-07-19T01:54:31;19.50;70.80
26745;DHT22;14342;50.960;13.880;2022-07-19T01:55:31;19.40;71.30
26745;DHT22;14342;50.960;13.880;2022-07-19T01:56:32;19.40;71.90
26745;DHT22;14342;50.960;13.880;2022-07-19T01:57:33;19.40;72.00
26745;DHT22;14342;50.960;13.880;2022-07-19T01:58:34;19.40;72.60
26745;DHT22;14342;50.960;13.880;2022-07-19T01:59:36;19.40;72.50
26745;DHT22;14342;50.960;13.880;2022-07-19T02:00:36;19.40;72.40
26745;DHT22;14342;50.960;13.880;2022-07-19T02:01:38;19.40;72.90
26745;DHT22;14342;50.960;13.880;2022-07-19T02:02:38;19.60;72.90
26745;DHT22;14342;50.960;13.880;2022-07-19T02:03:40;19.50;73.00
26745;DHT22;14342;50.960;13.880;2022-07-19T02:04:40;19.40;73.10
26745;DHT22;14342;50.960;13.880;2022-07-19T02:05:42;19.40;73.50
26745;DHT22;14342;50.960;13.880;2022-07-19T02:06:42;19.40;73.80
26745;DHT22;14342;50.960;13.880;2022-07-19T02:07:45;19.30;73.80
26745;DHT22;14342;50.960;13.880;2022-07-19T02:08:46;19.40;74.20
26745;DHT22;14342;50.960;13.880;2022-07-19T02:09:47;19.30;74.70
26745;DHT22;14342;50.960;13.880;2022-07-19T02:10:48;19.30;74.90
26745;DHT22;14342;50.960;13.880;2022-07-19T02:11:49;19.30;75.00
26745;DHT22;14342;50.960;13.880;2022-07-19T02:12:50;19.30;75.60
26745;DHT22;14342;50.960;13.880;2022-07-19T02:13:52;19.20;75.70
26745;DHT22;14342;50.960;13.880;2022-07-19T02:14:52;19.20;75.70
26745;DHT22;14342;50.960;13.880;2022-07-19T02:15:54;19.20;76.30
26745;DHT22;14342;50.960;13.880;2022-07-19T02:16:55;19.20;76.20
26745;DHT22;14342;50.960;13.880;2022-07-19T02:17:56;19.20;76.60
26745;DHT22;14342;50.960;13.880;2022-07-19T02:18:57;19.30;76.20
26745;DHT22;14342;50.960;13.880;2022-07-19T02:19:58;19.30;75.80
26745;DHT22;14342;50.960;13.880;2022-07-19T02:20:59;19.40;75.80
26745;DHT22;14342;50.960;13.880;2022-07-19T02:22:00;19.40;75.90
26745;DHT22;14342;50.960;13.880;2022-07-19T02:23:02;19.40;75.80
26745;DHT22;14342;50.960;13.880;2022-07-19T02:24:04;19.50;76.10
26745;DHT22;14342;50.960;13.880;2022-07-19T02:25:06;19.60;75.10
26745;DHT22;14342;50.960;13.880;2022-07-19T02:26:07;19.60;74.90
26745;DHT22;14342;50.960;13.880;2022-07-19T02:27:09;19.60;74.90
26745;DHT22;14342;50.960;13.880;2022-07-19T02:28:10;19.60;74.90
26745;DHT22;14342;50.960;13.880;2022-07-19T02:29:11;19.60;74.70
26745;DHT22;14342;50.960;13.880;2022-07-19T02:30:12;19.70;74.60
26745;DHT22;14342;50.960;13.880;2022-07-19T02:31:14;19.80;74.20
26745;DHT22;14342;50.960;13.880;2022-07-19T02:32:14;19.80;73.70
26745;DHT22;14342;50.960;13.880;2022-07-19T02:33:16;19.90;73.30
26745;DHT22;14342;50.960;13.880;2022-07-19T02:34:17;19.90;73.10
26745;DHT22;14342;50.960;13.880;2022-07-19T02:35:18;20.00;72.90
26745;DHT22;14342;50.960;13.880;2022-07-19T02:36:20;19.90;73.00
26745;DHT22;14342;50.960;13.880;2022-07-19T02:37:20;19.90;73.00
26745;DHT22;14342;50.960;13.880;2022-07-19T02:38:23;19.90;73.30
26745;DHT22;14342;50.960;13.880;2022-07-19T02:39:24;19.90;73.40
26745;DHT22;14342;50.960;13.880;2022-07-19T02:40:25;19.80;73.40
26745;DHT22;14342;50.960;13.880;2022-07-19T02:41:27;19.80;73.70
26745;DHT22;14342;50.960;13.880;2022-07-19T02:42:27;19.80;74.20
26745;DHT22;14342;50.960;13.880;2022-07-19T02:43:29;19.70;74.00
26745;DHT22;14342;50.960;13.880;2022-07-19T02:44:29;19.70;74.80
26745;DHT22;14342;50.960;13.880;2022-07-19T02:45:31;19.60;74.80
26745;DHT22;14342;50.960;13.880;2022-07-19T02:46:32;19.60;75.10
26745;DHT22;14342;50.960;13.880;2022-07-19T02:47:33;19.60;75.30
26745;DHT22;14342;50.960;13.880;2022-07-19T02:48:34;19.60;75.60
26745;DHT22;14342;50.960;13.880;2022-07-19T02:49:35;19.60;75.60
26745;DHT22;14342;50.960;13.880;2022-07-19T02:50:36;19.70;75.30
26745;DHT22;14342;50.960;13.880;2022-07-19T02:51:37;19.70;75.30
26745;DHT22;14342;50.960;13.880;2022-07-19T02:52:38;19.70;74.80
26745;DHT22;14342;50.960;13.880;2022-07-19T02:53:41;19.70;74.80
26745;DHT22;14342;50.960;13.880;2022-07-19T02:54:41;19.70;74.60
26745;DHT22;14342;50.960;13.880;2022-07-19T02:55:43;19.80;74.60
26745;DHT22;14342;50.960;13.880;2022-07-19T02:56:43;19.80;74.60
26745;DHT22;14342;50.960;13.880;2022-07-19T02:57:45;19.90;74.20
26745;DHT22;14342;50.960;13.880;2022-07-19T02:58:46;19.90;74.20
26745;DHT22;14342;50.960;13.880;2022-07-19T02:59:47;19.90;74.10
26745;DHT22;14342;50.960;13.880;2022-07-19T03:00:48;19.90;74.10
26745;DHT22;14342;50.960;13.880;2022-07-19T03:01:49;19.90;74.10
26745;DHT22;14342;50.960;13.880;2022-07-19T03:02:50;19.90;74.20
26745;DHT22;14342;50.960;13.880;2022-07-19T03:03:51;19.90;74.20
26745;DHT22;14342;50.960;13.880;2022-07-19T03:04:52;19.90;74.20
26745;DHT22;14342;50.960;13.880;2022-07-19T03:05:53;19.90;75.10
26745;DHT22;14342;50.960;13.880;2022-07-19T03:06:55;19.90;74.10
26745;DHT22;14342;50.960;13.880;2022-07-19T03:07:56;19.90;74.50
26745;DHT22;14342;50.960;13.880;2022-07-19T03:08:58;19.90;74.50
26745;DHT22;14342;50.960;13.880;2022-07-19T03:10:00;19.80;74.40
26745;DHT22;14342;50.960;13.880;2022-07-19T03:11:00;19.80;74.90
26745;DHT22;14342;50.960;13.880;2022-07-19T03:12:02;19.70;75.00
26745;DHT22;14342;50.960;13.880;2022-07-19T03:13:02;19.80;75.10
26745;DHT22;14342;50.960;13.880;2022-07-19T03:14:04;19.80;75.10
26745;DHT22;14342;50.960;13.880;2022-07-19T03:15:05;19.80;75.80
26745;DHT22;14342;50.960;13.880;2022-07-19T03:16:07;19.80;75.10
26745;DHT22;14342;50.960;13.880;2022-07-19T03:17:07;19.80;74.90
26745;DHT22;14342;50.960;13.880;2022-07-19T03:18:09;19.80;74.90
26745;DHT22;14342;50.960;13.880;2022-07-19T03:19:09;19.80;74.50
26745;DHT22;14342;50.960;13.880;2022-07-19T03:20:11;19.60;74.20
26745;DHT22;14342;50.960;13.880;2022-07-19T03:21:11;19.80;74.50
26745;DHT22;14342;50.960;13.880;2022-07-19T03:22:13;19.80;74.60
26745;DHT22;14342;50.960;13.880;2022-07-19T03:23:14;19.80;74.80
26745;DHT22;14342;50.960;13.880;2022-07-19T03:24:16;19.80;74.60
26745;DHT22;14342;50.960;13.880;2022-07-19T03:25:17;19.80;74.50
26745;DHT22;14342;50.960;13.880;2022-07-19T03:26:18;19.80;74.70
26745;DHT22;14342;50.960;13.880;2022-07-19T03:27:19;19.80;74.60
26745;DHT22;14342;50.960;13.880;2022-07-19T03:28:20;19.80;74.60
26745;DHT22;14342;50.960;13.880;2022-07-19T03:29:21;19.80;74.60
26745;DHT22;14342;50.960;13.880;2022-07-19T03:30:22;19.80;74.40
26745;DHT22;14342;50.960;13.880;2022-07-19T03:31:23;19.80;74.40
26745;DHT22;14342;50.960;13.880;2022-07-19T03:32:24;19.80;74.40
26745;DHT22;14342;50.960;13.880;2022-07-19T03:33:25;19.80;74.50
26745;DHT22;14342;50.960;13.880;2022-07-19T03:34:27;19.70;74.50
26745;DHT22;14342;50.960;13.880;2022-07-19T03:35:28;19.70;74.80
26745;DHT22;14342;50.960;13.880;2022-07-19T03:36:30;19.70;74.80
26745;DHT22;14342;50.960;13.880;2022-07-19T03:37:32;19.70;75.20
26745;DHT22;14342;50.960;13.880;2022-07-19T03:38:32;19.70;76.00
26745;DHT22;14342;50.960;13.880;2022-07-19T03:39:35;19.70;75.10
26745;DHT22;14342;50.960;13.880;2022-07-19T03:40:36;19.60;75.10
26745;DHT22;14342;50.960;13.880;2022-07-19T03:41:37;19.60;75.20
26745;DHT22;14342;50.960;13.880;2022-07-19T03:42:38;19.60;75.60
26745;DHT22;14342;50.960;13.880;2022-07-19T03:43:39;19.60;75.70
26745;DHT22;14342;50.960;13.880;2022-07-19T03:44:40;19.60;76.10
26745;DHT22;14342;50.960;13.880;2022-07-19T03:45:42;19.60;76.60
26745;DHT22;14342;50.960;13.880;2022-07-19T03:46:42;19.60;76.60
26745;DHT22;14342;50.960;13.880;2022-07-19T03:47:44;19.60;76.70
26745;DHT22;14342;50.960;13.880;2022-07-19T03:48:45;19.60;76.60
26745;DHT22;14342;50.960;13.880;2022-07-19T03:49:46;19.60;76.60
26745;DHT22;14342;50.960;13.880;2022-07-19T03:50:47;19.60;76.80
26745;DHT22;14342;50.960;13.880;2022-07-19T03:51:49;19.50;76.80
26745;DHT22;14342;50.960;13.880;2022-07-19T03:52:50;19.50;77.00
26745;DHT22;14342;50.960;13.880;2022-07-19T03:53:51;19.50;77.20
26745;DHT22;14342;50.960;13.880;2022-07-19T03:54:53;19.50;77.80
26745;DHT22;14342;50.960;13.880;2022-07-19T03:55:55;19.50;77.70
26745;DHT22;14342;50.960;13.880;2022-07-19T03:56:56;19.40;78.10
26745;DHT22;14342;50.960;13.880;2022-07-19T03:57:57;19.40;78.40
26745;DHT22;14342;50.960;13.880;2022-07-19T03:58:58;19.40;78.50
26745;DHT22;14342;50.960;13.880;2022-07-19T03:59:59;19.40;78.40
26745;DHT22;14342;50.960;13.880;2022-07-19T04:01:00;19.40;78.90
26745;DHT22;14342;50.960;13.880;2022-07-19T04:02:02;19.40;79.10
26745;DHT22;14342;50.960;13.880;2022-07-19T04:03:03;19.40;79.00
26745;DHT22;14342;50.960;13.880;2022-07-19T04:04:04;19.40;79.10
26745;DHT22;14342;50.960;13.880;2022-07-19T04:05:05;19.40;79.40
26745;DHT22;14342;50.960;13.880;2022-07-19T04:06:07;19.30;80.10
26745;DHT22;14342;50.960;13.880;2022-07-19T04:07:10;19.30;80.60
26745;DHT22;14342;50.960;13.880;2022-07-19T04:08:10;19.20;81.20
26745;DHT22;14342;50.960;13.880;2022-07-19T04:09:12;19.20;81.50
26745;DHT22;14342;50.960;13.880;2022-07-19T04:10:14;19.20;81.50
26745;DHT22;14342;50.960;13.880;2022-07-19T04:11:15;19.20;81.60
26745;DHT22;14342;50.960;13.880;2022-07-19T04:12:17;19.30;81.70
26745;DHT22;14342;50.960;13.880;2022-07-19T04:13:17;19.30;81.60
26745;DHT22;14342;50.960;13.880;2022-07-19T04:14:19;19.30;81.50
26745;DHT22;14342;50.960;13.880;2022-07-19T04:15:19;19.40;81.40
26745;DHT22;14342;50.960;13.880;2022-07-19T04:16:21;19.40;81.00
26745;DHT22;14342;50.960;13.880;2022-07-19T04:17:21;19.40;81.30
26745;DHT22;14342;50.960;13.880;2022-07-19T04:18:24;19.40;81.30
26745;DHT22;14342;50.960;13.880;2022-07-19T04:19:25;19.50;81.20
26745;DHT22;14342;50.960;13.880;2022-07-19T04:20:26;19.50;81.70
26745;DHT22;14342;50.960;13.880;2022-07-19T04:21:27;19.50;81.90
26745;DHT22;14342;50.960;13.880;2022-07-19T04:22:28;19.50;81.50
26745;DHT22;14342;50.960;13.880;2022-07-19T04:23:30;19.50;81.90
26745;DHT22;14342;50.960;13.880;2022-07-19T04:24:31;19.60;81.50
26745;DHT22;14342;50.960;13.880;2022-07-19T04:25:33;19.60;82.10
26745;DHT22;14342;50.960;13.880;2022-07-19T04:26:34;19.60;82.60
26745;DHT22;14342;50.960;13.880;2022-07-19T04:27:35;19.60;81.60
26745;DHT22;14342;50.960;13.880;2022-07-19T04:28:36;19.50;81.40
26745;DHT22;14342;50.960;13.880;2022-07-19T04:29:38;19.60;82.20
26745;DHT22;14342;50.960;13.880;2022-07-19T04:30:38;19.50;82.60
26745;DHT22;14342;50.960;13.880;2022-07-19T04:31:39;19.40;83.10
26745;DHT22;14342;50.960;13.880;2022-07-19T04:32:40;19.40;83.90
26745;DHT22;14342;50.960;13.880;2022-07-19T04:33:42;19.40;84.30
26745;DHT22;14342;50.960;13.880;2022-07-19T04:34:42;19.40;84.80
26745;DHT22;14342;50.960;13.880;2022-07-19T04:35:44;19.40;84.60
26745;DHT22;14342;50.960;13.880;2022-07-19T04:36:46;19.40;85.20
26745;DHT22;14342;50.960;13.880;2022-07-19T04:37:46;19.40;85.30
26745;DHT22;14342;50.960;13.880;2022-07-19T04:38:48;19.40;85.20
26745;DHT22;14342;50.960;13.880;2022-07-19T04:39:48;19.40;85.40
26745;DHT22;14342;50.960;13.880;2022-07-19T04:40:51;19.40;85.70
26745;DHT22;14342;50.960;13.880;2022-07-19T04:41:52;19.50;86.00
26745;DHT22;14342;50.960;13.880;2022-07-19T04:42:53;19.50;86.20
26745;DHT22;14342;50.960;13.880;2022-07-19T04:43:54;19.40;86.60
26745;DHT22;14342;50.960;13.880;2022-07-19T04:44:55;19.40;86.80
26745;DHT22;14342;50.960;13.880;2022-07-19T04:45:57;19.50;87.10
26745;DHT22;14342;50.960;13.880;2022-07-19T04:47:00;19.50;87.20
26745;DHT22;14342;50.960;13.880;2022-07-19T04:48:01;19.50;87.20
26745;DHT22;14342;50.960;13.880;2022-07-19T04:49:02;19.50;87.20
26745;DHT22;14342;50.960;13.880;2022-07-19T04:50:04;19.50;88.00
26745;DHT22;14342;50.960;13.880;2022-07-19T04:51:04;19.60;87.80
26745;DHT22;14342;50.960;13.880;2022-07-19T04:52:06;19.60;87.90
26745;DHT22;14342;50.960;13.880;2022-07-19T04:53:06;19.60;87.40
26745;DHT22;14342;50.960;13.880;2022-07-19T04:54:08;19.70;87.00
26745;DHT22;14342;50.960;13.880;2022-07-19T04:55:09;19.70;86.50
26745;DHT22;14342;50.960;13.880;2022-07-19T04:56:12;19.80;87.40
26745;DHT22;14342;50.960;13.880;2022-07-19T04:57:12;19.80;87.30
26745;DHT22;14342;50.960;13.880;2022-07-19T04:58:14;19.90;87.30
26745;DHT22;14342;50.960;13.880;2022-07-19T04:59:15;19.90;87.60
26745;DHT22;14342;50.960;13.880;2022-07-19T05:00:16;19.80;87.50
26745;DHT22;14342;50.960;13.880;2022-07-19T05:01:17;19.80;87.80
26745;DHT22;14342;50.960;13.880;2022-07-19T05:02:18;19.80;87.80
26745;DHT22;14342;50.960;13.880;2022-07-19T05:03:19;19.80;88.20
26745;DHT22;14342;50.960;13.880;2022-07-19T05:04:20;19.80;88.70
26745;DHT22;14342;50.960;13.880;2022-07-19T05:05:21;19.90;88.40
26745;DHT22;14342;50.960;13.880;2022-07-19T05:06:22;19.90;88.90
26745;DHT22;14342;50.960;13.880;2022-07-19T05:07:25;19.90;88.20
26745;DHT22;14342;50.960;13.880;2022-07-19T05:08:26;19.90;88.30
26745;DHT22;14342;50.960;13.880;2022-07-19T05:09:27;19.90;88.30
26745;DHT22;14342;50.960;13.880;2022-07-19T05:10:29;20.00;88.40
26745;DHT22;14342;50.960;13.880;2022-07-19T05:11:31;20.00;88.60
26745;DHT22;14342;50.960;13.880;2022-07-19T05:12:32;20.00;88.20
26745;DHT22;14342;50.960;13.880;2022-07-19T05:13:33;20.10;88.20
26745;DHT22;14342;50.960;13.880;2022-07-19T05:14:34;20.10;88.30
26745;DHT22;14342;50.960;13.880;2022-07-19T05:15:35;20.20;88.40
26745;DHT22;14342;50.960;13.880;2022-07-19T05:16:36;20.30;89.00
26745;DHT22;14342;50.960;13.880;2022-07-19T05:17:37;20.30;88.10
26745;DHT22;14342;50.960;13.880;2022-07-19T05:18:38;20.40;89.20
26745;DHT22;14342;50.960;13.880;2022-07-19T05:19:39;20.40;90.20
26745;DHT22;14342;50.960;13.880;2022-07-19T05:20:41;20.40;90.50
26745;DHT22;14342;50.960;13.880;2022-07-19T05:21:41;20.50;91.30
26745;DHT22;14342;50.960;13.880;2022-07-19T05:22:43;20.40;91.70
26745;DHT22;14342;50.960;13.880;2022-07-19T05:23:43;20.50;92.00
26745;DHT22;14342;50.960;13.880;2022-07-19T05:24:45;20.50;91.50
26745;DHT22;14342;50.960;13.880;2022-07-19T05:25:45;20.50;91.50
26745;DHT22;14342;50.960;13.880;2022-07-19T05:26:48;20.50;92.40
26745;DHT22;14342;50.960;13.880;2022-07-19T05:27:49;20.60;92.30
26745;DHT22;14342;50.960;13.880;2022-07-19T05:28:50;20.60;92.00
26745;DHT22;14342;50.960;13.880;2022-07-19T05:29:52;20.60;91.70
26745;DHT22;14342;50.960;13.880;2022-07-19T05:30:53;20.70;91.20
26745;DHT22;14342;50.960;13.880;2022-07-19T05:31:53;20.70;90.80
26745;DHT22;14342;50.960;13.880;2022-07-19T05:32:55;20.80;90.80
26745;DHT22;14342;50.960;13.880;2022-07-19T05:33:55;20.80;90.20
26745;DHT22;14342;50.960;13.880;2022-07-19T05:34:57;20.80;88.60
26745;DHT22;14342;50.960;13.880;2022-07-19T05:35:57;20.80;88.80
26745;DHT22;14342;50.960;13.880;2022-07-19T05:36:59;20.80;88.90
26745;DHT22;14342;50.960;13.880;2022-07-19T05:38:00;20.80;89.20
26745;DHT22;14342;50.960;13.880;2022-07-19T05:39:01;20.80;89.60
26745;DHT22;14342;50.960;13.880;2022-07-19T05:40:03;20.80;89.20
26745;DHT22;14342;50.960;13.880;2022-07-19T05:41:04;20.90;88.50
26745;DHT22;14342;50.960;13.880;2022-07-19T05:42:07;20.90;89.10
26745;DHT22;14342;50.960;13.880;2022-07-19T05:43:07;20.90;89.20
26745;DHT22;14342;50.960;13.880;2022-07-19T05:44:09;20.90;89.70
26745;DHT22;14342;50.960;13.880;2022-07-19T05:45:10;20.90;89.90
26745;DHT22;14342;50.960;13.880;2022-07-19T05:46:11;20.90;90.20
26745;DHT22;14342;50.960;13.880;2022-07-19T05:47:12;20.90;91.10
26745;DHT22;14342;50.960;13.880;2022-07-19T05:48:13;20.90;90.80
26745;DHT22;14342;50.960;13.880;2022-07-19T05:49:14;21.00;90.40
26745;DHT22;14342;50.960;13.880;2022-07-19T05:50:15;21.00;90.70
26745;DHT22;14342;50.960;13.880;2022-07-19T05:51:16;21.10;90.80
26745;DHT22;14342;50.960;13.880;2022-07-19T05:52:17;21.10;90.00
26745;DHT22;14342;50.960;13.880;2022-07-19T05:53:19;21.10;90.10
26745;DHT22;14342;50.960;13.880;2022-07-19T05:54:19;21.10;89.70
26745;DHT22;14342;50.960;13.880;2022-07-19T05:55:21;21.20;90.30
26745;DHT22;14342;50.960;13.880;2022-07-19T05:56:22;21.20;91.50
26745;DHT22;14342;50.960;13.880;2022-07-19T05:57:24;21.30;91.20
26745;DHT22;14342;50.960;13.880;2022-07-19T05:58:25;21.40;91.10
26745;DHT22;14342;50.960;13.880;2022-07-19T05:59:26;21.40;90.50
26745;DHT22;14342;50.960;13.880;2022-07-19T06:00:27;21.50;90.40
26745;DHT22;14342;50.960;13.880;2022-07-19T06:01:28;21.60;90.10
26745;DHT22;14342;50.960;13.880;2022-07-19T06:02:29;21.70;90.10
26745;DHT22;14342;50.960;13.880;2022-07-19T06:03:31;21.80;89.20
26745;DHT22;14342;50.960;13.880;2022-07-19T06:04:31;21.80;88.60
26745;DHT22;14342;50.960;13.880;2022-07-19T06:05:33;21.90;89.60
26745;DHT22;14342;50.960;13.880;2022-07-19T06:06:33;22.00;88.40
26745;DHT22;14342;50.960;13.880;2022-07-19T06:07:35;22.10;87.20
26745;DHT22;14342;50.960;13.880;2022-07-19T06:08:36;22.20;86.60
26745;DHT22;14342;50.960;13.880;2022-07-19T06:09:37;22.20;87.40
26745;DHT22;14342;50.960;13.880;2022-07-19T06:10:38;22.20;86.90
26745;DHT22;14342;50.960;13.880;2022-07-19T06:11:39;22.30;86.20
26745;DHT22;14342;50.960;13.880;2022-07-19T06:12:42;22.30;85.70
26745;DHT22;14342;50.960;13.880;2022-07-19T06:13:45;22.50;86.30
26745;DHT22;14342;50.960;13.880;2022-07-19T06:14:45;22.60;85.70
26745;DHT22;14342;50.960;13.880;2022-07-19T06:15:47;22.60;85.90
26745;DHT22;14342;50.960;13.880;2022-07-19T06:16:47;22.50;84.50
26745;DHT22;14342;50.960;13.880;2022-07-19T06:17:49;22.60;85.90
26745;DHT22;14342;50.960;13.880;2022-07-19T06:18:49;22.70;84.50
26745;DHT22;14342;50.960;13.880;2022-07-19T06:19:51;22.80;85.50